Aérodrome :
LOGIN :

S'inscrire | Disclaimer

   EN    FR    IT 

 










Légende :    VFR   VFR Marginal   IFR   IFR Intensif   IFR Très Intensif
Visi : 
Plafond : 
>= 8 km
>= 3000ft
5 à 8 km
1000 à 3000 ft
1500m à 5 km
500 à 1000 ft
800 à 1500m
200 à 500 ft
< 800m
< 200 ft
Symboles :   Orages  Brouillard  Fortes neiges  Fortes précipitations  Vent > 20 kt
SIGMETs :   Divers  Orages  Givrage  Turbulence  Onde Orograph.  Cendres Volcan.






- Altitude de l'aérodrome : 1043 ft
- Code IATA : SLD


LZSL - Sliac

DERNIER METAR :
  • 261730Z VRB02KT 9999 BKN032 10/08 Q0998

METARs EXPIRÉS :
  • 261700Z VRB01KT 9999 FEW015 BKN032 10/07 Q0998
  • 261630Z 24004KT 210V270 9999 FEW015 BKN032 11/08 Q0998
  • 261600Z 22005KT 190V340 9999 FEW015 OVC031 11/07 Q0998
  • 261530Z 24009KT 9999 FEW010 BKN030 11/07 Q0998
  • 261500Z 22008KT 9999 FEW005 OVC030 11/08 Q0998
  • 261430Z 20009KT 170V240 9999 FEW006 BKN028 11/09 Q0998

TAF TAF LZSL
Valide du 26 à 18h jusqu'au 27 à 03h UTC


261700Z 2618/2703 23004KT 9999 SCT015 BKN030



MET'MAP, la Météo Aéronautique d'un coup d'oeil ! - Copyright ORBIFLY Décembre 2007 - Disclaimer

ORBIFLY MET'MAP TEAM :

Programmation & Développement : Alexandra Zaïnal
Sur une idée originale de : Baudouin d'Aumeries
Assistance à la programmation : Marc-Olivier Méhu
Soutien technique & logistique : Manuel Goepfert

Contact : metmap@orbifly.com




SOURCES & CREDITS :

   NOAA